createdAt,value
2019-04-06T00:00:49.894Z,3.36
2019-04-06T00:02:49.961Z,3.39
2019-04-06T00:04:50.412Z,3.40
2019-04-06T00:06:50.673Z,3.42
2019-04-06T00:08:49.768Z,3.43
2019-04-06T00:10:49.728Z,3.45
2019-04-06T00:12:49.993Z,3.45
2019-04-06T00:14:50.128Z,3.46
2019-04-06T00:16:50.469Z,3.46
2019-04-06T00:18:50.472Z,3.44
2019-04-06T00:20:50.607Z,3.43
2019-04-06T00:22:50.687Z,3.41
2019-04-06T00:24:49.845Z,3.39
2019-04-06T00:26:50.026Z,3.35
2019-04-06T00:28:50.020Z,3.35
2019-04-06T00:30:50.126Z,3.30
2019-04-06T00:32:50.194Z,3.27
2019-04-06T00:34:50.632Z,3.24
2019-04-06T00:36:49.855Z,3.21
2019-04-06T00:38:49.966Z,3.19
2019-04-06T00:40:50.001Z,3.18
2019-04-06T00:42:50.087Z,3.17
2019-04-06T00:44:50.270Z,3.13
2019-04-06T00:46:50.527Z,3.05
2019-04-06T00:48:50.578Z,3.03
2019-04-06T00:50:50.630Z,3.02
2019-04-06T00:52:50.668Z,3.02
2019-04-06T00:54:49.780Z,3.04
2019-04-06T00:56:50.138Z,3.08
2019-04-06T00:58:50.153Z,3.12
2019-04-06T01:00:50.231Z,3.17
2019-04-06T01:02:50.326Z,3.20
2019-04-06T01:04:50.646Z,3.27
2019-04-06T01:06:50.088Z,3.34
2019-04-06T01:08:50.206Z,3.39
2019-04-06T01:10:50.286Z,3.45
2019-04-06T01:12:50.569Z,3.47
2019-04-06T01:14:50.268Z,3.50
2019-04-06T01:16:50.774Z,3.53
2019-04-06T01:18:50.124Z,3.53
2019-04-06T01:20:50.282Z,3.55
2019-04-06T01:22:50.332Z,3.57
2019-04-06T01:24:50.520Z,3.59
2019-04-06T01:26:49.931Z,3.61
2019-04-06T01:28:50.169Z,3.66
2019-04-06T01:30:50.322Z,3.68
2019-04-06T01:32:50.461Z,3.72
2019-04-06T01:34:49.971Z,3.74
2019-04-06T01:36:50.186Z,3.75
2019-04-06T01:38:50.366Z,3.78
2019-04-06T01:40:50.398Z,3.79
2019-04-06T01:42:50.511Z,3.76
2019-04-06T01:44:50.601Z,3.77
2019-04-06T01:46:50.029Z,3.78
2019-04-06T01:48:50.148Z,3.75
2019-04-06T01:50:50.264Z,3.73
2019-04-06T01:52:50.362Z,3.66
2019-04-06T01:54:50.404Z,3.65
2019-04-06T01:56:50.698Z,3.61
2019-04-06T01:58:49.798Z,3.61
2019-04-06T02:00:49.980Z,3.60
2019-04-06T02:02:50.054Z,3.59
2019-04-06T02:04:50.540Z,3.59
2019-04-06T02:06:49.792Z,3.61
2019-04-06T02:08:50.217Z,3.62
2019-04-06T02:10:50.253Z,3.63
2019-04-06T02:12:50.374Z,3.62
2019-04-06T02:14:50.542Z,3.60
2019-04-06T02:16:49.729Z,3.56
2019-04-06T02:18:49.975Z,3.54
2019-04-06T02:20:50.011Z,3.45
2019-04-06T02:22:50.167Z,3.42
2019-04-06T02:24:50.314Z,3.35
2019-04-06T02:26:50.521Z,3.29
2019-04-06T02:28:50.656Z,3.28
2019-04-06T02:30:49.980Z,3.26
2019-04-06T02:32:50.174Z,3.25
2019-04-06T02:34:50.625Z,3.26
2019-04-06T02:36:49.722Z,3.28
2019-04-06T02:38:50.234Z,3.28
2019-04-06T02:40:50.592Z,3.29
2019-04-06T02:42:50.752Z,3.27
2019-04-06T02:44:49.813Z,3.26
2019-04-06T02:46:50.137Z,3.25
2019-04-06T02:48:50.465Z,3.25
2019-04-06T02:50:50.852Z,3.27
2019-04-06T02:52:50.176Z,3.29
2019-04-06T02:54:50.319Z,3.33
2019-04-06T02:56:50.513Z,3.35
2019-04-06T02:58:50.571Z,3.34
2019-04-06T03:00:50.587Z,3.36
2019-04-06T03:02:49.769Z,3.41
2019-04-06T03:04:50.198Z,3.41
2019-04-06T03:06:50.544Z,3.43
2019-04-06T03:08:50.672Z,3.43
2019-04-06T03:10:49.718Z,3.40
2019-04-06T03:12:49.923Z,3.37
2019-04-06T03:14:50.008Z,3.35
2019-04-06T03:16:50.223Z,3.35
2019-04-06T03:18:50.304Z,3.35
2019-04-06T03:20:50.769Z,3.34
2019-04-06T03:22:49.944Z,3.33
2019-04-06T03:24:50.208Z,3.31
2019-04-06T03:27:03.437Z,3.27
2019-04-06T03:28:50.511Z,3.27
2019-04-06T03:30:50.633Z,3.26
2019-04-06T03:32:49.749Z,3.24
2019-04-06T03:34:50.533Z,3.20
2019-04-06T03:36:49.893Z,3.18
2019-04-06T03:38:49.964Z,3.16
2019-04-06T03:40:50.171Z,3.14
2019-04-06T03:42:50.368Z,3.14
2019-04-06T03:44:50.764Z,3.13
2019-04-06T03:46:50.371Z,3.13
2019-04-06T03:48:50.463Z,3.14
2019-04-06T03:50:50.530Z,3.13
2019-04-06T03:52:49.822Z,3.13
2019-04-06T03:54:49.844Z,3.12
2019-04-06T03:56:50.135Z,3.12
2019-04-06T03:58:52.969Z,3.12
2019-04-06T04:00:50.824Z,3.08
2019-04-06T04:02:49.850Z,3.08
2019-04-06T04:04:50.289Z,3.06
2019-04-06T04:06:50.616Z,3.04
2019-04-06T04:08:50.654Z,3.04
2019-04-06T04:10:49.905Z,3.03
2019-04-06T04:12:50.044Z,3.03
2019-04-06T04:14:50.234Z,3.04
2019-04-06T04:16:50.867Z,3.06
2019-04-06T04:18:50.177Z,3.07
2019-04-06T04:20:50.219Z,3.07
2019-04-06T04:22:50.342Z,3.06
2019-04-06T04:24:50.690Z,3.06
2019-04-06T04:26:50.333Z,3.05
2019-04-06T04:28:50.456Z,3.06
2019-04-06T04:30:50.889Z,3.03
2019-04-06T04:32:50.246Z,2.96
2019-04-06T04:34:50.542Z,2.93
2019-04-06T04:36:50.415Z,2.88
2019-04-06T04:38:50.648Z,2.79
2019-04-06T04:40:50.014Z,2.76
2019-04-06T04:42:50.157Z,2.69
2019-04-06T04:44:50.177Z,2.64
2019-04-06T04:46:50.419Z,2.61
2019-04-06T04:48:50.762Z,2.54
2019-04-06T04:50:50.343Z,2.52
2019-04-06T04:52:50.314Z,2.48
2019-04-06T04:54:50.532Z,2.47
2019-04-06T04:56:49.782Z,2.45
2019-04-06T04:58:49.786Z,2.40
2019-04-06T05:00:50.454Z,2.39
2019-04-06T05:02:50.658Z,2.38
2019-04-06T05:04:50.085Z,2.38
2019-04-06T05:06:50.231Z,2.37
2019-04-06T05:08:50.412Z,2.37
2019-04-06T05:10:50.430Z,2.34
2019-04-06T05:12:50.519Z,2.33
2019-04-06T05:14:50.543Z,2.34
2019-04-06T05:16:50.223Z,2.33
2019-04-06T05:18:50.387Z,2.33
2019-04-06T05:20:50.473Z,2.33
2019-04-06T05:22:50.588Z,2.30
2019-04-06T05:24:50.878Z,2.29
2019-04-06T05:26:50.022Z,2.29
2019-04-06T05:28:50.254Z,2.32
2019-04-06T05:30:50.454Z,2.34
2019-04-06T05:32:50.503Z,2.43
2019-04-06T05:34:50.210Z,2.45
2019-04-06T05:36:49.921Z,2.49
2019-04-06T05:38:50.151Z,2.50
2019-04-06T05:40:50.180Z,2.52
2019-04-06T05:42:50.404Z,2.58
2019-04-06T05:44:50.636Z,2.64
2019-04-06T05:46:49.922Z,2.75
2019-04-06T05:48:49.996Z,2.80
2019-04-06T05:50:49.936Z,2.90
2019-04-06T05:52:49.904Z,2.92
2019-04-06T05:54:50.109Z,3.01
2019-04-06T05:56:50.439Z,3.13
2019-04-06T05:58:50.046Z,3.19
2019-04-06T06:00:50.116Z,3.36
2019-04-06T06:02:50.397Z,3.36
2019-04-06T06:04:49.783Z,3.61
2019-04-06T06:06:50.158Z,3.67
2019-04-06T06:08:50.249Z,3.84
2019-04-06T06:10:50.327Z,3.91
2019-04-06T06:12:50.511Z,3.98
2019-04-06T06:14:49.767Z,4.01
2019-04-06T06:16:50.275Z,4.14
2019-04-06T06:18:50.259Z,4.20
2019-04-06T06:20:50.323Z,4.28
2019-04-06T06:22:50.340Z,4.38
2019-04-06T06:24:50.630Z,4.41
2019-04-06T06:26:49.800Z,4.44
2019-04-06T06:28:49.814Z,4.47
2019-04-06T06:30:49.876Z,4.54
2019-04-06T06:32:49.935Z,4.57
2019-04-06T06:34:50.277Z,4.64
2019-04-06T06:36:50.455Z,4.73
2019-04-06T06:38:50.502Z,4.85
2019-04-06T06:40:50.638Z,4.92
2019-04-06T06:42:50.773Z,4.95
2019-04-06T06:44:50.132Z,5.11
2019-04-06T06:46:50.261Z,5.17
2019-04-06T06:48:50.338Z,5.19
2019-04-06T06:50:50.498Z,5.34
2019-04-06T06:52:50.491Z,5.34
2019-04-06T06:54:49.800Z,5.56
2019-04-06T06:56:49.993Z,5.59
2019-04-06T06:58:50.336Z,5.73
2019-04-06T07:00:50.447Z,5.92
2019-04-06T07:02:50.491Z,6.13
2019-04-06T07:04:49.854Z,6.16
2019-04-06T07:06:50.125Z,6.37
2019-04-06T07:08:50.587Z,6.46
2019-04-06T07:10:50.551Z,6.71
2019-04-06T07:12:49.749Z,7.01
2019-04-06T07:14:50.058Z,7.14
2019-04-06T07:16:50.192Z,7.39
2019-04-06T07:18:50.239Z,7.52
2019-04-06T07:20:50.568Z,7.63
2019-04-06T07:22:50.584Z,7.73
2019-04-06T07:24:49.999Z,7.80
2019-04-06T07:26:50.475Z,8.04
2019-04-06T07:28:50.437Z,8.34
2019-04-06T07:30:50.506Z,8.68
2019-04-06T07:32:50.653Z,8.85
2019-04-06T07:34:50.077Z,9.10
2019-04-06T07:36:50.242Z,9.20
2019-04-06T07:38:50.517Z,9.24
2019-04-06T07:40:50.784Z,9.30
2019-04-06T07:42:50.055Z,9.4
2019-04-06T07:44:50.245Z,9.5
2019-04-06T07:46:50.651Z,9.5
2019-04-06T07:48:50.816Z,9.5
2019-04-06T07:50:49.926Z,9.6
2019-04-06T07:52:50.169Z,9.6
2019-04-06T07:54:50.473Z,9.6
2019-04-06T07:56:50.590Z,9.7
2019-04-06T07:58:50.794Z,9.7
2019-04-06T08:00:50.012Z,9.8
2019-04-06T08:02:50.527Z,9.8
2019-04-06T08:04:50.052Z,9.8
2019-04-06T08:06:50.590Z,9.8
2019-04-06T08:08:49.985Z,10.0
2019-04-06T08:10:49.976Z,10.0
2019-04-06T08:12:50.345Z,10.0
2019-04-06T08:14:50.430Z,10.1
2019-04-06T08:16:50.530Z,10.2
2019-04-06T08:18:50.137Z,10.2
2019-04-06T08:20:50.257Z,10.2
2019-04-06T08:22:50.585Z,10.2
2019-04-06T08:24:50.652Z,10.3
2019-04-06T08:26:49.990Z,10.4
2019-04-06T08:29:02.885Z,10.5
2019-04-06T08:30:50.366Z,10.6
2019-04-06T08:32:50.438Z,10.6
2019-04-06T08:34:49.777Z,10.6
2019-04-06T08:36:50.105Z,10.8
2019-04-06T08:38:50.494Z,10.8
2019-04-06T08:40:50.515Z,10.9
2019-04-06T08:42:50.590Z,11.0
2019-04-06T08:44:50.657Z,11.0
2019-04-06T08:46:49.896Z,11.1
2019-04-06T08:48:49.942Z,11.2
2019-04-06T08:50:50.273Z,11.3
2019-04-06T08:52:50.413Z,11.4
2019-04-06T08:54:50.513Z,11.4
2019-04-06T08:56:50.903Z,11.4
2019-04-06T08:58:50.409Z,11.6
2019-04-06T09:00:50.525Z,11.6
2019-04-06T09:02:50.686Z,11.7
2019-04-06T09:04:50.179Z,11.7
2019-04-06T09:06:50.582Z,11.8
2019-04-06T09:08:50.661Z,11.9
2019-04-06T09:10:49.707Z,11.9
2019-04-06T09:12:49.864Z,12.0
2019-04-06T09:14:50.058Z,12.1
2019-04-06T09:16:50.334Z,12.2
2019-04-06T09:18:50.396Z,12.2
2019-04-06T09:20:50.672Z,12.2
2019-04-06T09:22:50.171Z,12.4
2019-04-06T09:24:50.918Z,12.5
2019-04-06T09:26:50.483Z,12.6
2019-04-06T09:28:51.080Z,12.7
2019-04-06T09:30:50.352Z,12.7
2019-04-06T09:32:50.802Z,12.9
2019-04-06T09:34:50.285Z,13.0
2019-04-06T09:36:51.162Z,13.2
2019-04-06T09:38:50.433Z,13.2
2019-04-06T09:40:51.305Z,13.4
2019-04-06T09:42:50.585Z,13.6
2019-04-06T09:44:51.035Z,13.7
2019-04-06T09:46:50.550Z,13.8
2019-04-06T09:48:50.818Z,13.8
2019-04-06T09:50:50.093Z,14.1
2019-04-06T09:52:50.589Z,14.3
2019-04-06T09:54:51.067Z,14.4
2019-04-06T09:56:50.647Z,14.4
2019-04-06T09:58:51.121Z,14.6
2019-04-06T10:00:50.731Z,14.7
2019-04-06T10:02:50.683Z,14.8
2019-04-06T10:04:50.252Z,14.9
2019-04-06T10:06:50.913Z,14.9
2019-04-06T10:08:50.203Z,15.0
2019-04-06T10:10:51.017Z,15.1
2019-04-06T10:12:50.520Z,15.3
2019-04-06T10:14:50.614Z,15.4
2019-04-06T10:16:50.031Z,15.4
2019-04-06T10:18:50.611Z,15.6
2019-04-06T10:20:50.087Z,15.7
2019-04-06T10:22:50.326Z,15.8
2019-04-06T10:24:50.546Z,15.9
2019-04-06T10:26:50.806Z,15.9
2019-04-06T10:28:51.329Z,15.9
2019-04-06T10:30:50.622Z,16.0
2019-04-06T10:32:51.202Z,16.1
2019-04-06T10:34:50.981Z,16.2
2019-04-06T10:36:50.652Z,16.2
2019-04-06T10:38:50.119Z,16.2
2019-04-06T10:40:50.363Z,16.3
2019-04-06T10:42:50.864Z,16.4
2019-04-06T10:44:50.509Z,16.4
2019-04-06T10:46:49.977Z,16.5
2019-04-06T10:48:50.204Z,16.5
2019-04-06T10:50:50.772Z,16.4
2019-04-06T10:52:50.341Z,16.5
2019-04-06T10:54:50.556Z,16.5
2019-04-06T10:56:50.014Z,16.5
2019-04-06T10:58:50.193Z,16.4
2019-04-06T11:00:50.625Z,16.4
2019-04-06T11:02:50.192Z,16.5
2019-04-06T11:04:50.762Z,16.5
2019-04-06T11:06:50.360Z,16.5
2019-04-06T11:08:50.761Z,16.6
2019-04-06T11:10:51.092Z,16.6
2019-04-06T11:12:50.602Z,16.6
2019-04-06T11:14:50.612Z,16.7
2019-04-06T11:16:50.175Z,16.8
2019-04-06T11:18:50.979Z,16.9
2019-04-06T11:20:50.227Z,17.0
2019-04-06T11:22:50.611Z,17.0
2019-04-06T11:24:50.976Z,17.1
2019-04-06T11:26:50.435Z,17.2
2019-04-06T11:28:51.012Z,17.3
2019-04-06T11:30:50.652Z,17.5
2019-04-06T11:32:50.290Z,17.5
2019-04-06T11:34:51.094Z,17.7
2019-04-06T11:36:50.471Z,17.8
2019-04-06T11:38:49.852Z,17.9
2019-04-06T11:40:50.039Z,18.0
2019-04-06T11:42:50.622Z,18.0
2019-04-06T11:44:51.065Z,18.2
2019-04-06T11:46:50.686Z,18.2
2019-04-06T11:48:50.236Z,18.3
2019-04-06T11:50:50.888Z,18.3
2019-04-06T11:52:50.497Z,18.3
2019-04-06T11:54:50.400Z,18.3
2019-04-06T11:56:50.599Z,18.3
2019-04-06T11:58:50.735Z,18.2
2019-04-06T12:00:50.363Z,18.2
2019-04-06T12:02:50.613Z,18.2
2019-04-06T12:04:50.529Z,18.1
2019-04-06T12:06:50.641Z,18.0
2019-04-06T12:08:50.811Z,18.0
2019-04-06T12:10:50.334Z,18.0
2019-04-06T12:12:50.177Z,18.0
2019-04-06T12:14:50.842Z,17.9
2019-04-06T12:16:50.265Z,17.9
2019-04-06T12:18:50.748Z,17.9
2019-04-06T12:20:50.027Z,18.0
2019-04-06T12:22:51.704Z,18.0
2019-04-06T12:24:50.323Z,18.0
2019-04-06T12:26:50.887Z,18.1
2019-04-06T12:28:50.243Z,18.1
2019-04-06T12:30:50.731Z,18.2
2019-04-06T12:32:50.135Z,18.3
2019-04-06T12:34:50.377Z,18.4
2019-04-06T12:36:50.758Z,18.4
2019-04-06T12:38:50.267Z,18.4
2019-04-06T12:40:50.533Z,18.5
2019-04-06T12:42:51.108Z,18.7
2019-04-06T12:44:50.672Z,18.8
2019-04-06T12:46:50.156Z,19.0
2019-04-06T12:48:53.757Z,19.0
2019-04-06T12:50:50.486Z,19.2
2019-04-06T12:52:50.795Z,19.4
2019-04-06T12:54:50.277Z,19.4
2019-04-06T12:56:50.928Z,19.5
2019-04-06T12:58:50.186Z,19.7
2019-04-06T13:00:54.774Z,19.7
2019-04-06T13:02:50.055Z,19.8
2019-04-06T13:04:50.651Z,19.8
2019-04-06T13:06:50.531Z,19.8
2019-04-06T13:08:50.773Z,19.8
2019-04-06T13:10:50.164Z,19.8
2019-04-06T13:12:50.504Z,19.8
2019-04-06T13:14:50.467Z,19.8
2019-04-06T13:16:49.953Z,19.8
2019-04-06T13:18:51.097Z,19.9
2019-04-06T13:20:50.766Z,19.9
2019-04-06T13:22:50.874Z,19.9
2019-04-06T13:24:50.587Z,19.9
2019-04-06T13:26:50.025Z,19.9
2019-04-06T13:28:50.711Z,19.8
2019-04-06T13:31:05.232Z,19.9
2019-04-06T13:32:50.107Z,19.8
2019-04-06T13:34:50.621Z,19.9
2019-04-06T13:36:50.258Z,19.9
2019-04-06T13:38:50.550Z,19.8
2019-04-06T13:40:50.822Z,19.7
2019-04-06T13:42:49.975Z,19.6
2019-04-06T13:44:50.251Z,19.6
2019-04-06T13:46:50.873Z,19.4
2019-04-06T13:48:50.475Z,19.4
2019-04-06T13:50:50.910Z,19.5
2019-04-06T13:52:50.686Z,19.6
2019-04-06T13:54:51.140Z,19.6
2019-04-06T13:56:50.482Z,19.6
2019-04-06T13:58:51.767Z,19.8
2019-04-06T14:00:50.083Z,20.0
2019-04-06T14:02:50.731Z,20.0
2019-04-06T14:04:50.598Z,20.0
2019-04-06T14:06:50.004Z,20.0
2019-04-06T14:08:50.263Z,19.9
2019-04-06T14:10:50.532Z,19.9
2019-04-06T14:12:50.849Z,19.9
2019-04-06T14:14:50.424Z,19.9
2019-04-06T14:16:49.959Z,19.8
2019-04-06T14:18:50.238Z,19.8
2019-04-06T14:20:50.517Z,19.8
2019-04-06T14:22:51.477Z,19.8
2019-04-06T14:24:51.416Z,19.7
2019-04-06T14:26:49.985Z,19.7
2019-04-06T14:28:50.611Z,19.7
2019-04-06T14:30:51.231Z,19.7
2019-04-06T14:32:50.127Z,19.7
2019-04-06T14:34:50.730Z,19.7
2019-04-06T14:36:50.208Z,19.7
2019-04-06T14:38:50.788Z,19.7
2019-04-06T14:40:50.509Z,19.7
2019-04-06T14:42:49.889Z,19.7
2019-04-06T14:44:51.275Z,19.7
2019-04-06T14:46:51.176Z,19.7
2019-04-06T14:48:50.457Z,19.6
2019-04-06T14:50:50.773Z,19.6
2019-04-06T14:52:50.130Z,19.6
2019-04-06T14:54:50.493Z,19.7
2019-04-06T14:56:50.464Z,19.6
2019-04-06T14:58:50.156Z,19.6
2019-04-06T15:00:51.253Z,19.6
2019-04-06T15:02:50.331Z,19.6
2019-04-06T15:04:51.137Z,19.6
2019-04-06T15:06:50.963Z,19.5
2019-04-06T15:08:51.043Z,19.5
2019-04-06T15:10:50.317Z,19.4
2019-04-06T15:12:50.647Z,19.4
2019-04-06T15:14:50.957Z,19.4
2019-04-06T15:16:50.769Z,19.4
2019-04-06T15:18:50.703Z,19.4
2019-04-06T15:20:50.831Z,19.4
2019-04-06T15:22:50.468Z,19.4
2019-04-06T15:24:50.916Z,19.4
2019-04-06T15:26:50.368Z,19.4
2019-04-06T15:28:50.586Z,19.4
2019-04-06T15:30:50.890Z,19.4
2019-04-06T15:32:51.098Z,19.5
2019-04-06T15:34:51.730Z,19.5
2019-04-06T15:36:50.161Z,19.5
2019-04-06T15:38:50.811Z,19.5
2019-04-06T15:40:50.577Z,19.4
2019-04-06T15:42:51.496Z,19.4
2019-04-06T15:44:50.833Z,19.3
2019-04-06T15:46:50.866Z,19.3
2019-04-06T15:48:50.240Z,19.3
2019-04-06T15:50:50.525Z,19.2
2019-04-06T15:52:51.411Z,19.0
2019-04-06T15:54:50.942Z,19.0
2019-04-06T15:56:50.807Z,19.0
2019-04-06T15:58:50.274Z,19.0
2019-04-06T16:00:51.079Z,18.9
2019-04-06T16:02:50.298Z,18.9
2019-04-06T16:04:50.435Z,18.9
2019-04-06T16:06:50.851Z,18.9
2019-04-06T16:08:50.059Z,18.8
2019-04-06T16:10:50.592Z,18.8
2019-04-06T16:12:50.936Z,18.7
2019-04-06T16:14:50.004Z,18.7
2019-04-06T16:16:50.229Z,18.6
2019-04-06T16:18:50.355Z,18.6
2019-04-06T16:20:50.042Z,18.6
2019-04-06T16:22:50.106Z,18.59
2019-04-06T16:24:50.515Z,18.43
2019-04-06T16:26:49.906Z,18.37
2019-04-06T16:28:49.978Z,18.27
2019-04-06T16:30:52.124Z,18.20
2019-04-06T16:32:51.011Z,18.19
2019-04-06T16:34:50.558Z,18.09
2019-04-06T16:36:50.193Z,18.05
2019-04-06T16:38:51.296Z,18.00
2019-04-06T16:40:50.426Z,17.97
2019-04-06T16:42:50.710Z,17.87
2019-04-06T16:44:50.801Z,17.80
2019-04-06T16:46:50.645Z,17.74
2019-04-06T16:48:50.640Z,17.69
2019-04-06T16:50:50.636Z,17.62
2019-04-06T16:52:50.145Z,17.50
2019-04-06T16:54:50.167Z,17.40
2019-04-06T16:56:50.760Z,17.26
2019-04-06T16:58:49.898Z,17.11
2019-04-06T17:00:50.345Z,17.06
2019-04-06T17:02:50.903Z,16.94
2019-04-06T17:04:50.749Z,16.79
2019-04-06T17:06:50.216Z,16.72
2019-04-06T17:08:50.884Z,16.60
2019-04-06T17:10:50.995Z,16.56
2019-04-06T17:12:50.025Z,16.52
2019-04-06T17:14:50.114Z,16.36
2019-04-06T17:16:50.330Z,16.31
2019-04-06T17:18:50.465Z,16.23
2019-04-06T17:20:50.461Z,16.19
2019-04-06T17:22:50.769Z,16.16
2019-04-06T17:24:50.201Z,16.11
2019-04-06T17:26:50.623Z,16.11
2019-04-06T17:28:50.647Z,15.96
2019-04-06T17:30:50.208Z,15.88
2019-04-06T17:32:50.617Z,15.82
2019-04-06T17:34:57.855Z,15.78
2019-04-06T17:36:50.304Z,15.71
2019-04-06T17:38:50.321Z,15.59
2019-04-06T17:40:50.402Z,15.59
2019-04-06T17:42:50.653Z,15.43
2019-04-06T17:44:49.959Z,15.36
2019-04-06T17:46:50.739Z,15.23
2019-04-06T17:48:50.236Z,15.19
2019-04-06T17:50:51.018Z,15.09
2019-04-06T17:52:50.520Z,15.01
2019-04-06T17:54:50.644Z,14.87
2019-04-06T17:56:50.188Z,14.73
2019-04-06T17:58:50.987Z,14.65
2019-04-06T18:00:50.741Z,14.64
2019-04-06T18:02:51.391Z,14.62
2019-04-06T18:04:50.360Z,14.57
2019-04-06T18:06:50.888Z,14.51
2019-04-06T18:08:50.234Z,14.35
2019-04-06T18:10:50.524Z,14.35
2019-04-06T18:12:51.078Z,14.07
2019-04-06T18:14:49.741Z,13.85
2019-04-06T18:16:50.633Z,13.81
2019-04-06T18:18:50.148Z,13.79
2019-04-06T18:20:50.588Z,13.79
2019-04-06T18:22:50.349Z,13.71
2019-04-06T18:24:50.338Z,13.56
2019-04-06T18:26:50.009Z,13.54
2019-04-06T18:28:50.975Z,13.53
2019-04-06T18:30:50.515Z,13.50
2019-04-06T18:33:03.852Z,13.39
2019-04-06T18:34:50.435Z,13.39
2019-04-06T18:36:49.805Z,13.31
2019-04-06T18:38:50.015Z,13.21
2019-04-06T18:40:50.624Z,13.08
2019-04-06T18:42:51.030Z,13.01
2019-04-06T18:44:50.147Z,12.93
2019-04-06T18:46:50.384Z,12.78
2019-04-06T18:48:50.540Z,12.74
2019-04-06T18:50:51.050Z,12.61
2019-04-06T18:52:50.207Z,12.57
2019-04-06T18:54:50.746Z,12.48
2019-04-06T18:56:50.488Z,12.39
2019-04-06T18:58:50.624Z,12.31
2019-04-06T19:00:50.707Z,12.13
2019-04-06T19:02:49.836Z,12.11
2019-04-06T19:04:50.444Z,12.01
2019-04-06T19:06:50.684Z,11.85
2019-04-06T19:08:50.402Z,11.79
2019-04-06T19:10:50.393Z,11.64
2019-04-06T19:12:49.911Z,11.52
2019-04-06T19:14:49.965Z,11.49
2019-04-06T19:16:50.531Z,11.42
2019-04-06T19:18:51.159Z,11.38
2019-04-06T19:20:50.421Z,11.31
2019-04-06T19:22:50.437Z,11.31
2019-04-06T19:24:50.947Z,11.25
2019-04-06T19:26:50.193Z,11.25
2019-04-06T19:28:50.683Z,11.30
2019-04-06T19:30:50.213Z,11.28
2019-04-06T19:32:50.754Z,11.27
2019-04-06T19:34:50.941Z,11.21
2019-04-06T19:36:50.225Z,11.24
2019-04-06T19:38:50.306Z,11.17
2019-04-06T19:40:50.665Z,11.10
2019-04-06T19:42:50.215Z,11.04
2019-04-06T19:44:50.288Z,11.02
2019-04-06T19:46:51.185Z,11.03
2019-04-06T19:48:50.843Z,11.15
2019-04-06T19:50:50.140Z,11.18
2019-04-06T19:52:50.762Z,11.22
2019-04-06T19:54:50.881Z,11.23
2019-04-06T19:56:50.155Z,11.18
2019-04-06T19:58:50.319Z,11.10
2019-04-06T20:00:50.976Z,10.98
2019-04-06T20:02:51.157Z,10.89
2019-04-06T20:04:49.928Z,10.75
2019-04-06T20:06:50.832Z,10.56
2019-04-06T20:08:50.396Z,10.48
2019-04-06T20:10:51.296Z,10.46
2019-04-06T20:12:50.656Z,10.41
2019-04-06T20:14:49.855Z,10.26
2019-04-06T20:16:51.439Z,10.20
2019-04-06T20:18:50.767Z,10.09
2019-04-06T20:20:50.507Z,10.05
2019-04-06T20:22:49.722Z,9.95
2019-04-06T20:24:51.012Z,9.87
2019-04-06T20:26:50.869Z,9.79
2019-04-06T20:28:50.361Z,9.69
2019-04-06T20:30:50.711Z,9.67
2019-04-06T20:32:50.455Z,9.61
2019-04-06T20:34:50.565Z,9.54
2019-04-06T20:36:49.976Z,9.50
2019-04-06T20:38:50.248Z,9.42
2019-04-06T20:40:50.541Z,9.38
2019-04-06T20:42:50.224Z,9.30
2019-04-06T20:44:50.502Z,9.24
2019-04-06T20:46:49.763Z,9.21
2019-04-06T20:48:50.451Z,9.22
2019-04-06T20:50:51.058Z,9.22
2019-04-06T20:52:51.069Z,9.15
2019-04-06T20:54:50.304Z,9.16
2019-04-06T20:56:59.272Z,9.13
2019-04-06T20:58:50.497Z,9.12
2019-04-06T21:00:51.415Z,9.12
2019-04-06T21:02:51.152Z,9.15
2019-04-06T21:04:50.956Z,9.17
2019-04-06T21:06:50.739Z,9.17
2019-04-06T21:08:51.024Z,9.24
2019-04-06T21:10:50.111Z,9.29
2019-04-06T21:12:50.791Z,9.30
2019-04-06T21:14:54.151Z,9.40
2019-04-06T21:16:50.589Z,9.45
2019-04-06T21:18:49.910Z,9.50
2019-04-06T21:20:50.726Z,9.62
2019-04-06T21:22:50.070Z,9.65
2019-04-06T21:24:50.617Z,9.68
2019-04-06T21:26:50.183Z,9.68
2019-04-06T21:28:50.551Z,9.77
2019-04-06T21:30:49.755Z,9.83
2019-04-06T21:32:49.973Z,9.85
2019-04-06T21:34:50.717Z,9.83
2019-04-06T21:36:51.254Z,9.84
2019-04-06T21:38:50.707Z,9.72
2019-04-06T21:40:50.348Z,9.72
2019-04-06T21:42:49.744Z,9.63
2019-04-06T21:44:50.564Z,9.63
2019-04-06T21:46:49.955Z,9.57
2019-04-06T21:48:50.881Z,9.45
2019-04-06T21:50:50.410Z,9.43
2019-04-06T21:52:51.125Z,9.39
2019-04-06T21:54:50.681Z,9.35
2019-04-06T21:56:50.493Z,9.34
2019-04-06T21:58:50.696Z,9.31
2019-04-06T22:00:50.405Z,9.28
2019-04-06T22:02:50.611Z,9.27
2019-04-06T22:04:49.986Z,9.26
2019-04-06T22:06:50.954Z,9.21
2019-04-06T22:08:50.442Z,9.17
2019-04-06T22:10:50.665Z,9.19
2019-04-06T22:12:49.951Z,9.16
2019-04-06T22:14:50.811Z,9.14
2019-04-06T22:16:50.903Z,9.11
2019-04-06T22:18:50.145Z,9.02
2019-04-06T22:20:50.447Z,9.00
2019-04-06T22:22:51.109Z,8.97
2019-04-06T22:24:50.414Z,8.97
2019-04-06T22:26:49.958Z,8.96
2019-04-06T22:28:51.012Z,8.89
2019-04-06T22:30:50.781Z,8.86
2019-04-06T22:32:50.030Z,8.83
2019-04-06T22:34:51.173Z,8.83
2019-04-06T22:36:50.677Z,8.90
2019-04-06T22:38:49.995Z,8.89
2019-04-06T22:40:50.601Z,8.87
2019-04-06T22:42:50.444Z,8.86
2019-04-06T22:44:51.173Z,8.87
2019-04-06T22:46:51.737Z,8.87
2019-04-06T22:48:49.913Z,8.90
2019-04-06T22:50:49.858Z,8.90
2019-04-06T22:52:50.684Z,8.91
2019-04-06T22:54:50.515Z,8.91
2019-04-06T22:56:49.980Z,8.85
2019-04-06T22:58:50.674Z,8.75
2019-04-06T23:00:50.687Z,8.70
2019-04-06T23:02:49.874Z,8.66
2019-04-06T23:04:51.726Z,8.66
2019-04-06T23:06:50.145Z,8.61
2019-04-06T23:08:50.516Z,8.61
2019-04-06T23:10:50.742Z,8.61
2019-04-06T23:12:49.942Z,8.61
2019-04-06T23:14:50.165Z,8.54
2019-04-06T23:16:50.555Z,8.62
2019-04-06T23:18:50.690Z,8.61
2019-04-06T23:20:49.953Z,8.52
2019-04-06T23:22:50.318Z,8.49
2019-04-06T23:24:50.443Z,8.45
2019-04-06T23:26:50.137Z,8.44
2019-04-06T23:28:50.555Z,8.40
2019-04-06T23:30:50.728Z,8.36
2019-04-06T23:32:50.879Z,8.34
2019-04-06T23:35:02.837Z,8.33
2019-04-06T23:36:50.341Z,8.33
2019-04-06T23:38:50.162Z,8.37
2019-04-06T23:40:50.285Z,8.38
2019-04-06T23:42:50.442Z,8.35
2019-04-06T23:44:51.749Z,8.20
2019-04-06T23:46:50.029Z,8.13
2019-04-06T23:48:50.207Z,8.13
2019-04-06T23:50:50.256Z,8.17
2019-04-06T23:52:50.800Z,8.18
2019-04-06T23:54:49.980Z,8.16
2019-04-06T23:56:51.487Z,8.11
2019-04-06T23:58:50.649Z,8.11
